sensor_id;sensor_type;location;lat;lon;timestamp;pressure;altitude;pressure_sealevel;temperature;humidity
56456;BME280;42354;53.218;6.564;2023-02-28T00:00:10;46968.81;;;-142.92;92.30
56456;BME280;42354;53.218;6.564;2023-02-28T00:02:37;46985.22;;;-142.92;92.17
56456;BME280;42354;53.218;6.564;2023-02-28T00:05:04;46985.22;;;-142.92;92.36
56456;BME280;42354;53.218;6.564;2023-02-28T00:07:31;46964.72;;;-142.92;92.42
56456;BME280;42354;53.218;6.564;2023-02-28T00:10:01;46983.19;;;-142.92;92.17
56456;BME280;42354;53.218;6.564;2023-02-28T00:12:29;46970.88;;;-142.92;92.79
56456;BME280;42354;53.218;6.564;2023-02-28T00:14:55;46950.34;;;-142.92;92.73
56456;BME280;42354;53.218;6.564;2023-02-28T00:17:20;46970.88;;;-142.92;92.86
56456;BME280;42354;53.218;6.564;2023-02-28T00:19:50;46977.03;;;-142.92;92.62
56456;BME280;42354;53.218;6.564;2023-02-28T00:22:21;46974.97;;;-142.92;92.80
56456;BME280;42354;53.218;6.564;2023-02-28T00:24:46;46987.28;;;-142.92;93.01
56456;BME280;42354;53.218;6.564;2023-02-28T00:27:13;46985.22;;;-142.92;92.98
56456;BME280;42354;53.218;6.564;2023-02-28T00:29:39;46999.59;;;-142.92;92.95
56456;BME280;42354;53.218;6.564;2023-02-28T00:32:05;46977.03;;;-142.92;93.01
56456;BME280;42354;53.218;6.564;2023-02-28T00:34:31;46995.50;;;-142.92;93.28
56456;BME280;42354;53.218;6.564;2023-02-28T00:37:03;46966.75;;;-142.92;93.23
56456;BME280;42354;53.218;6.564;2023-02-28T00:39:29;46962.66;;;-142.92;93.24
56456;BME280;42354;53.218;6.564;2023-02-28T00:41:54;46979.06;;;-142.92;93.33
56456;BME280;42354;53.218;6.564;2023-02-28T00:44:19;46970.88;;;-142.92;93.45
56456;BME280;42354;53.218;6.564;2023-02-28T00:46:46;46985.22;;;-142.92;93.57
56456;BME280;42354;53.218;6.564;2023-02-28T00:49:12;46983.19;;;-142.92;93.61
56456;BME280;42354;53.218;6.564;2023-02-28T00:51:37;46968.81;;;-142.92;93.58
56456;BME280;42354;53.218;6.564;2023-02-28T00:54:03;46985.22;;;-142.92;93.72
56456;BME280;42354;53.218;6.564;2023-02-28T00:56:28;46968.81;;;-142.92;93.80
56456;BME280;42354;53.218;6.564;2023-02-28T00:58:53;46966.75;;;-142.92;93.92
56456;BME280;42354;53.218;6.564;2023-02-28T01:01:20;46979.06;;;-142.92;94.12
56456;BME280;42354;53.218;6.564;2023-02-28T01:03:46;46985.22;;;-142.92;94.04
56456;BME280;42354;53.218;6.564;2023-02-28T01:06:11;46977.03;;;-142.92;94.26
56456;BME280;42354;53.218;6.564;2023-02-28T01:08:37;46979.06;;;-142.92;94.24
56456;BME280;42354;53.218;6.564;2023-02-28T01:11:10;46972.91;;;-142.92;94.23
56456;BME280;42354;53.218;6.564;2023-02-28T01:13:36;46954.44;;;-142.92;94.57
56456;BME280;42354;53.218;6.564;2023-02-28T01:16:02;46970.88;;;-142.92;94.49
56456;BME280;42354;53.218;6.564;2023-02-28T01:18:28;46960.59;;;-142.92;94.62
56456;BME280;42354;53.218;6.564;2023-02-28T01:20:54;46987.28;;;-142.92;94.58
56456;BME280;42354;53.218;6.564;2023-02-28T01:23:21;46985.22;;;-142.92;94.64
56456;BME280;42354;53.218;6.564;2023-02-28T01:25:49;46979.06;;;-142.92;94.78
56456;BME280;42354;53.218;6.564;2023-02-28T01:28:14;46985.22;;;-142.92;94.96
56456;BME280;42354;53.218;6.564;2023-02-28T01:30:40;46970.88;;;-142.92;95.19
56456;BME280;42354;53.218;6.564;2023-02-28T01:33:05;46987.28;;;-142.92;95.28
56456;BME280;42354;53.218;6.564;2023-02-28T01:35:35;46993.44;;;-142.92;95.21
56456;BME280;42354;53.218;6.564;2023-02-28T01:38:01;46985.22;;;-142.92;95.35
56456;BME280;42354;53.218;6.564;2023-02-28T01:40:26;46987.28;;;-142.92;95.52
56456;BME280;42354;53.218;6.564;2023-02-28T01:42:52;46987.28;;;-142.92;95.41
56456;BME280;42354;53.218;6.564;2023-02-28T01:45:27;46981.13;;;-142.92;95.39
56456;BME280;42354;53.218;6.564;2023-02-28T01:48:02;46989.34;;;-142.92;95.43
56456;BME280;42354;53.218;6.564;2023-02-28T01:50:32;46987.28;;;-142.92;95.53
56456;BME280;42354;53.218;6.564;2023-02-28T01:53:07;46979.06;;;-142.92;95.63
56456;BME280;42354;53.218;6.564;2023-02-28T01:55:34;46977.03;;;-142.92;95.94
56456;BME280;42354;53.218;6.564;2023-02-28T01:58:03;46962.66;;;-142.92;95.91
56456;BME280;42354;53.218;6.564;2023-02-28T02:00:30;46970.88;;;-142.92;95.92
56456;BME280;42354;53.218;6.564;2023-02-28T02:03:06;46991.38;;;-142.92;96.15
56456;BME280;42354;53.218;6.564;2023-02-28T02:05:36;46995.50;;;-142.92;96.52
56456;BME280;42354;53.218;6.564;2023-02-28T02:08:05;46977.03;;;-142.92;96.65
56456;BME280;42354;53.218;6.564;2023-02-28T02:32:12;46970.88;;;-142.92;96.46
56456;BME280;42354;53.218;6.564;2023-02-28T02:34:52;47007.81;;;-142.92;96.92
56456;BME280;42354;53.218;6.564;2023-02-28T02:40:15;46974.97;;;-142.92;97.28
56456;BME280;42354;53.218;6.564;2023-02-28T02:42:49;46983.19;;;-142.92;97.52
56456;BME280;42354;53.218;6.564;2023-02-28T02:47:48;46956.50;;;-142.92;98.16
56456;BME280;42354;53.218;6.564;2023-02-28T02:50:59;46972.91;;;-142.92;97.81
56456;BME280;42354;53.218;6.564;2023-02-28T02:53:32;46983.19;;;-142.92;98.05
56456;BME280;42354;53.218;6.564;2023-02-28T02:56:01;46995.50;;;-142.92;98.46
56456;BME280;42354;53.218;6.564;2023-02-28T02:58:31;46979.06;;;-142.92;98.39
56456;BME280;42354;53.218;6.564;2023-02-28T03:01:01;46960.59;;;-142.92;98.55
56456;BME280;42354;53.218;6.564;2023-02-28T03:03:29;46993.44;;;-142.92;98.66
56456;BME280;42354;53.218;6.564;2023-02-28T03:05:57;46983.19;;;-142.92;98.53
56456;BME280;42354;53.218;6.564;2023-02-28T03:08:23;46989.34;;;-142.92;98.91
56456;BME280;42354;53.218;6.564;2023-02-28T03:10:51;46991.38;;;-142.92;99.01
56456;BME280;42354;53.218;6.564;2023-02-28T03:16:30;46968.81;;;-142.92;99.25
56456;BME280;42354;53.218;6.564;2023-02-28T03:21:28;46997.53;;;-142.92;99.18
56456;BME280;42354;53.218;6.564;2023-02-28T03:24:06;46966.75;;;-142.92;99.03
56456;BME280;42354;53.218;6.564;2023-02-28T03:26:39;46979.06;;;-142.92;98.99
56456;BME280;42354;53.218;6.564;2023-02-28T03:29:25;46970.88;;;-142.92;98.83
56456;BME280;42354;53.218;6.564;2023-02-28T03:32:17;47003.69;;;-142.92;99.12
56456;BME280;42354;53.218;6.564;2023-02-28T03:34:53;47003.69;;;-142.92;99.31
56456;BME280;42354;53.218;6.564;2023-02-28T03:37:23;46983.19;;;-142.92;99.71
56456;BME280;42354;53.218;6.564;2023-02-28T03:39:56;46966.75;;;-142.92;99.61
56456;BME280;42354;53.218;6.564;2023-02-28T03:42:25;46985.22;;;-142.92;99.92
56456;BME280;42354;53.218;6.564;2023-02-28T03:44:59;46966.75;;;-142.92;100.00
56456;BME280;42354;53.218;6.564;2023-02-28T03:47:33;46974.97;;;-142.92;99.87
56456;BME280;42354;53.218;6.564;2023-02-28T03:50:06;46987.28;;;-142.92;99.80
56456;BME280;42354;53.218;6.564;2023-02-28T03:52:35;46999.59;;;-142.92;99.95
56456;BME280;42354;53.218;6.564;2023-02-28T03:55:08;46985.22;;;-142.92;99.93
56456;BME280;42354;53.218;6.564;2023-02-28T04:00:13;46962.66;;;-142.92;100.00
56456;BME280;42354;53.218;6.564;2023-02-28T04:02:41;46972.91;;;-142.92;100.00
56456;BME280;42354;53.218;6.564;2023-02-28T04:05:07;46972.91;;;-142.92;100.00
56456;BME280;42354;53.218;6.564;2023-02-28T04:07:33;46974.97;;;-142.92;100.00
56456;BME280;42354;53.218;6.564;2023-02-28T04:09:59;46981.13;;;-142.92;100.00
56456;BME280;42354;53.218;6.564;2023-02-28T04:12:24;46987.28;;;-142.92;100.00
56456;BME280;42354;53.218;6.564;2023-02-28T04:14:50;46962.66;;;-142.92;100.00
56456;BME280;42354;53.218;6.564;2023-02-28T04:17:16;46970.88;;;-142.92;100.00
56456;BME280;42354;53.218;6.564;2023-02-28T04:19:41;46985.22;;;-142.92;100.00
56456;BME280;42354;53.218;6.564;2023-02-28T04:22:08;46997.53;;;-142.92;100.00
56456;BME280;42354;53.218;6.564;2023-02-28T04:24:35;46956.50;;;-142.92;100.00
56456;BME280;42354;53.218;6.564;2023-02-28T04:27:01;46958.56;;;-142.92;100.00
56456;BME280;42354;53.218;6.564;2023-02-28T04:29:28;46962.66;;;-142.92;100.00
56456;BME280;42354;53.218;6.564;2023-02-28T04:31:55;46974.97;;;-142.92;100.00
56456;BME280;42354;53.218;6.564;2023-02-28T04:34:29;46979.06;;;-142.92;100.00
56456;BME280;42354;53.218;6.564;2023-02-28T04:36:55;46991.38;;;-142.92;100.00
56456;BME280;42354;53.218;6.564;2023-02-28T04:39:22;46960.59;;;-142.92;100.00
56456;BME280;42354;53.218;6.564;2023-02-28T04:41:48;46991.38;;;-142.92;100.00
56456;BME280;42354;53.218;6.564;2023-02-28T04:44:14;46968.81;;;-142.92;100.00
56456;BME280;42354;53.218;6.564;2023-02-28T04:46:40;46981.13;;;-142.92;100.00
56456;BME280;42354;53.218;6.564;2023-02-28T04:49:06;46970.88;;;-142.92;100.00
56456;BME280;42354;53.218;6.564;2023-02-28T04:51:31;46993.44;;;-142.92;100.00
56456;BME280;42354;53.218;6.564;2023-02-28T04:53:57;46950.34;;;-142.92;100.00
56456;BME280;42354;53.218;6.564;2023-02-28T04:56:22;46981.13;;;-142.92;100.00
56456;BME280;42354;53.218;6.564;2023-02-28T04:58:48;46962.66;;;-142.92;100.00
56456;BME280;42354;53.218;6.564;2023-02-28T05:01:28;46985.22;;;-142.92;100.00
56456;BME280;42354;53.218;6.564;2023-02-28T05:03:56;46983.19;;;-142.92;100.00
56456;BME280;42354;53.218;6.564;2023-02-28T05:06:25;46979.06;;;-142.92;100.00
56456;BME280;42354;53.218;6.564;2023-02-28T05:08:52;46981.13;;;-142.92;100.00
56456;BME280;42354;53.218;6.564;2023-02-28T05:13:50;46966.75;;;-142.92;100.00
56456;BME280;42354;53.218;6.564;2023-02-28T05:16:16;46981.13;;;-142.92;100.00
56456;BME280;42354;53.218;6.564;2023-02-28T05:18:41;46970.88;;;-142.92;100.00
56456;BME280;42354;53.218;6.564;2023-02-28T05:23:48;46966.75;;;-142.92;100.00
56456;BME280;42354;53.218;6.564;2023-02-28T05:26:14;46972.91;;;-142.92;100.00
56456;BME280;42354;53.218;6.564;2023-02-28T05:28:39;46970.88;;;-142.92;100.00
56456;BME280;42354;53.218;6.564;2023-02-28T05:31:04;46987.28;;;-142.92;100.00
56456;BME280;42354;53.218;6.564;2023-02-28T05:33:30;46989.34;;;-142.92;100.00
56456;BME280;42354;53.218;6.564;2023-02-28T05:35:55;46966.75;;;-142.92;100.00
56456;BME280;42354;53.218;6.564;2023-02-28T05:38:21;46946.25;;;-142.92;100.00
56456;BME280;42354;53.218;6.564;2023-02-28T05:40:46;46981.13;;;-142.92;100.00
56456;BME280;42354;53.218;6.564;2023-02-28T05:43:11;47003.69;;;-142.92;100.00
56456;BME280;42354;53.218;6.564;2023-02-28T05:45:37;46962.66;;;-142.92;100.00
56456;BME280;42354;53.218;6.564;2023-02-28T05:48:02;46966.75;;;-142.92;100.00
56456;BME280;42354;53.218;6.564;2023-02-28T05:50:28;46972.91;;;-142.92;100.00
56456;BME280;42354;53.218;6.564;2023-02-28T05:52:53;46977.03;;;-142.92;100.00
56456;BME280;42354;53.218;6.564;2023-02-28T05:55:18;46979.06;;;-142.92;100.00
56456;BME280;42354;53.218;6.564;2023-02-28T05:57:44;46981.13;;;-142.92;100.00
56456;BME280;42354;53.218;6.564;2023-02-28T06:00:10;46987.28;;;-142.92;100.00
56456;BME280;42354;53.218;6.564;2023-02-28T06:02:36;46952.41;;;-142.92;100.00
56456;BME280;42354;53.218;6.564;2023-02-28T06:05:01;46974.97;;;-142.92;100.00
56456;BME280;42354;53.218;6.564;2023-02-28T06:07:26;46972.91;;;-142.92;100.00
56456;BME280;42354;53.218;6.564;2023-02-28T06:09:52;46970.88;;;-142.92;100.00
56456;BME280;42354;53.218;6.564;2023-02-28T06:12:17;46987.28;;;-142.92;100.00
56456;BME280;42354;53.218;6.564;2023-02-28T06:14:43;46977.03;;;-142.92;100.00
56456;BME280;42354;53.218;6.564;2023-02-28T06:17:09;46962.66;;;-142.92;100.00
56456;BME280;42354;53.218;6.564;2023-02-28T06:19:37;46960.59;;;-142.92;100.00
56456;BME280;42354;53.218;6.564;2023-02-28T06:22:04;46956.50;;;-142.92;100.00
56456;BME280;42354;53.218;6.564;2023-02-28T06:24:29;46977.03;;;-142.92;100.00
56456;BME280;42354;53.218;6.564;2023-02-28T06:26:56;46979.06;;;-142.92;100.00
56456;BME280;42354;53.218;6.564;2023-02-28T06:29:24;46958.56;;;-142.92;100.00
56456;BME280;42354;53.218;6.564;2023-02-28T06:31:49;46989.34;;;-142.92;100.00
56456;BME280;42354;53.218;6.564;2023-02-28T06:34:16;46989.34;;;-142.92;100.00
56456;BME280;42354;53.218;6.564;2023-02-28T06:36:42;46985.22;;;-142.92;100.00
56456;BME280;42354;53.218;6.564;2023-02-28T06:39:08;46999.59;;;-142.92;100.00
56456;BME280;42354;53.218;6.564;2023-02-28T06:41:34;46993.44;;;-142.92;100.00
56456;BME280;42354;53.218;6.564;2023-02-28T06:44:04;46972.91;;;-142.92;100.00
56456;BME280;42354;53.218;6.564;2023-02-28T06:46:31;46968.81;;;-142.92;100.00
56456;BME280;42354;53.218;6.564;2023-02-28T06:48:56;46948.28;;;-142.92;100.00
56456;BME280;42354;53.218;6.564;2023-02-28T06:51:22;46966.75;;;-142.92;100.00
56456;BME280;42354;53.218;6.564;2023-02-28T06:53:49;46964.72;;;-142.92;100.00
56456;BME280;42354;53.218;6.564;2023-02-28T06:56:16;46966.75;;;-142.92;100.00
56456;BME280;42354;53.218;6.564;2023-02-28T06:58:45;46981.13;;;-142.92;100.00
56456;BME280;42354;53.218;6.564;2023-02-28T07:01:10;46962.66;;;-142.92;100.00
56456;BME280;42354;53.218;6.564;2023-02-28T07:03:36;46970.88;;;-142.92;100.00
56456;BME280;42354;53.218;6.564;2023-02-28T07:06:02;46977.03;;;-142.92;100.00
56456;BME280;42354;53.218;6.564;2023-02-28T07:08:29;46981.13;;;-142.92;100.00
56456;BME280;42354;53.218;6.564;2023-02-28T07:10:56;46972.91;;;-142.92;100.00
56456;BME280;42354;53.218;6.564;2023-02-28T07:13:22;46995.50;;;-142.92;100.00
56456;BME280;42354;53.218;6.564;2023-02-28T07:15:59;46962.66;;;-142.92;100.00
56456;BME280;42354;53.218;6.564;2023-02-28T07:18:25;46987.28;;;-142.92;100.00
56456;BME280;42354;53.218;6.564;2023-02-28T07:20:51;46958.56;;;-142.92;100.00
56456;BME280;42354;53.218;6.564;2023-02-28T07:23:17;46964.72;;;-142.92;100.00
56456;BME280;42354;53.218;6.564;2023-02-28T07:25:43;46987.28;;;-142.92;100.00
56456;BME280;42354;53.218;6.564;2023-02-28T07:28:09;46981.13;;;-142.92;100.00
56456;BME280;42354;53.218;6.564;2023-02-28T07:30:35;46974.97;;;-142.92;100.00
56456;BME280;42354;53.218;6.564;2023-02-28T07:33:01;46981.13;;;-142.92;100.00
56456;BME280;42354;53.218;6.564;2023-02-28T07:35:26;46964.72;;;-142.92;100.00
56456;BME280;42354;53.218;6.564;2023-02-28T07:37:52;46962.66;;;-142.92;100.00
56456;BME280;42354;53.218;6.564;2023-02-28T07:40:17;46974.97;;;-142.92;100.00
56456;BME280;42354;53.218;6.564;2023-02-28T07:42:43;46964.72;;;-142.92;100.00
56456;BME280;42354;53.218;6.564;2023-02-28T07:45:10;46974.97;;;-142.92;99.71
56456;BME280;42354;53.218;6.564;2023-02-28T07:47:41;46974.97;;;-142.92;99.52
56456;BME280;42354;53.218;6.564;2023-02-28T07:50:08;46958.56;;;-142.92;99.44
56456;BME280;42354;53.218;6.564;2023-02-28T07:52:34;46962.66;;;-142.92;99.23
56456;BME280;42354;53.218;6.564;2023-02-28T07:54:59;46981.13;;;-142.92;99.23
56456;BME280;42354;53.218;6.564;2023-02-28T07:57:25;46974.97;;;-142.92;99.04
56456;BME280;42354;53.218;6.564;2023-02-28T07:59:51;46985.22;;;-142.92;98.76
56456;BME280;42354;53.218;6.564;2023-02-28T08:02:17;46979.06;;;-142.92;99.25
56456;BME280;42354;53.218;6.564;2023-02-28T08:04:43;46960.59;;;-142.92;98.73
56456;BME280;42354;53.218;6.564;2023-02-28T08:07:09;46985.22;;;-142.92;98.64
56456;BME280;42354;53.218;6.564;2023-02-28T08:09:38;46966.75;;;-142.92;99.01
56456;BME280;42354;53.218;6.564;2023-02-28T08:12:04;46960.59;;;-142.92;99.33
56456;BME280;42354;53.218;6.564;2023-02-28T08:14:30;46993.44;;;-142.92;99.61
56456;BME280;42354;53.218;6.564;2023-02-28T08:16:55;46977.03;;;-142.92;99.59
56456;BME280;42354;53.218;6.564;2023-02-28T08:19:21;46964.72;;;-142.92;99.54
56456;BME280;42354;53.218;6.564;2023-02-28T08:21:46;46977.03;;;-142.92;99.39
56456;BME280;42354;53.218;6.564;2023-02-28T08:24:12;46970.88;;;-142.92;99.25
56456;BME280;42354;53.218;6.564;2023-02-28T08:26:37;46995.50;;;-142.92;99.59
56456;BME280;42354;53.218;6.564;2023-02-28T08:29:02;46985.22;;;-142.92;99.37
56456;BME280;42354;53.218;6.564;2023-02-28T08:31:28;46968.81;;;-142.92;99.44
56456;BME280;42354;53.218;6.564;2023-02-28T08:33:53;46991.38;;;-142.92;99.37
56456;BME280;42354;53.218;6.564;2023-02-28T08:36:22;46995.50;;;-142.92;98.96
56456;BME280;42354;53.218;6.564;2023-02-28T08:38:48;46981.13;;;-142.92;98.98
56456;BME280;42354;53.218;6.564;2023-02-28T08:41:14;46997.53;;;-142.92;98.86
56456;BME280;42354;53.218;6.564;2023-02-28T08:43:40;46958.56;;;-142.92;98.51
56456;BME280;42354;53.218;6.564;2023-02-28T08:46:06;46999.59;;;-142.92;97.92
56456;BME280;42354;53.218;6.564;2023-02-28T08:48:33;46991.38;;;-142.92;97.48
56456;BME280;42354;53.218;6.564;2023-02-28T08:51:02;46983.19;;;-142.92;97.23
56456;BME280;42354;53.218;6.564;2023-02-28T08:53:27;46987.28;;;-142.92;96.63
56456;BME280;42354;53.218;6.564;2023-02-28T08:56:12;46974.97;;;-142.92;95.52
56456;BME280;42354;53.218;6.564;2023-02-28T08:58:39;46997.53;;;-142.92;95.36
56456;BME280;42354;53.218;6.564;2023-02-28T09:01:21;46987.28;;;-142.92;94.86
56456;BME280;42354;53.218;6.564;2023-02-28T09:03:49;46991.38;;;-142.92;94.94
56456;BME280;42354;53.218;6.564;2023-02-28T09:06:16;46977.03;;;-142.92;94.25
56456;BME280;42354;53.218;6.564;2023-02-28T09:08:42;47001.66;;;-142.92;93.88
56456;BME280;42354;53.218;6.564;2023-02-28T09:11:09;46985.22;;;-142.92;93.27
56456;BME280;42354;53.218;6.564;2023-02-28T09:13:34;47005.75;;;-142.92;92.40
56456;BME280;42354;53.218;6.564;2023-02-28T09:16:02;47003.69;;;-142.92;91.78
56456;BME280;42354;53.218;6.564;2023-02-28T09:18:28;46987.28;;;-142.92;91.45
56456;BME280;42354;53.218;6.564;2023-02-28T09:20:53;46991.38;;;-142.92;91.27
56456;BME280;42354;53.218;6.564;2023-02-28T09:23:25;46993.44;;;-142.92;91.29
56456;BME280;42354;53.218;6.564;2023-02-28T09:25:53;46968.81;;;-142.92;90.10
56456;BME280;42354;53.218;6.564;2023-02-28T09:28:20;46993.44;;;-142.92;89.16
56456;BME280;42354;53.218;6.564;2023-02-28T09:30:48;47011.91;;;-142.92;87.84
56456;BME280;42354;53.218;6.564;2023-02-28T09:33:14;47001.66;;;-142.92;87.62
56456;BME280;42354;53.218;6.564;2023-02-28T09:35:40;46985.22;;;-142.92;87.37
56456;BME280;42354;53.218;6.564;2023-02-28T09:38:06;46989.34;;;-142.92;86.53
56456;BME280;42354;53.218;6.564;2023-02-28T09:40:37;46993.44;;;-142.92;86.16
56456;BME280;42354;53.218;6.564;2023-02-28T09:43:04;46999.59;;;-142.92;85.95
56456;BME280;42354;53.218;6.564;2023-02-28T09:45:39;47020.13;;;-142.92;84.64
56456;BME280;42354;53.218;6.564;2023-02-28T09:48:19;46993.44;;;-142.92;83.17
56456;BME280;42354;53.218;6.564;2023-02-28T09:53:25;46987.28;;;-142.92;81.94
56456;BME280;42354;53.218;6.564;2023-02-28T09:56:42;46995.50;;;-142.92;82.28
56456;BME280;42354;53.218;6.564;2023-02-28T10:01:47;47001.66;;;-142.92;80.05
56456;BME280;42354;53.218;6.564;2023-02-28T10:04:58;46999.59;;;-142.92;78.94
56456;BME280;42354;53.218;6.564;2023-02-28T10:07:42;46989.34;;;-142.92;77.06
56456;BME280;42354;53.218;6.564;2023-02-28T10:10:26;46995.50;;;-142.92;76.91
56456;BME280;42354;53.218;6.564;2023-02-28T10:12:55;47001.66;;;-142.92;78.13
56456;BME280;42354;53.218;6.564;2023-02-28T10:15:24;46997.53;;;-142.92;77.63
56456;BME280;42354;53.218;6.564;2023-02-28T10:17:54;47005.75;;;-142.92;76.18
56456;BME280;42354;53.218;6.564;2023-02-28T10:20:24;47011.91;;;-142.92;74.83
56456;BME280;42354;53.218;6.564;2023-02-28T10:23:26;46995.50;;;-142.92;71.65
56456;BME280;42354;53.218;6.564;2023-02-28T10:25:58;47003.69;;;-142.92;69.65
56456;BME280;42354;53.218;6.564;2023-02-28T10:28:26;46989.34;;;-142.92;69.38
56456;BME280;42354;53.218;6.564;2023-02-28T10:30:54;47003.69;;;-142.92;68.47
56456;BME280;42354;53.218;6.564;2023-02-28T10:35:45;46979.06;;;-142.92;67.72
56456;BME280;42354;53.218;6.564;2023-02-28T10:38:17;46987.28;;;-142.92;64.02
56456;BME280;42354;53.218;6.564;2023-02-28T10:40:42;46985.22;;;-142.92;64.78
56456;BME280;42354;53.218;6.564;2023-02-28T10:45:39;46999.59;;;-142.92;64.82
56456;BME280;42354;53.218;6.564;2023-02-28T10:58:52;46999.59;;;-142.92;60.70
56456;BME280;42354;53.218;6.564;2023-02-28T11:04:16;47036.53;;;-142.92;56.02
56456;BME280;42354;53.218;6.564;2023-02-28T11:06:42;47011.91;;;-142.92;57.62
56456;BME280;42354;53.218;6.564;2023-02-28T11:09:40;46991.38;;;-142.92;52.25
56456;BME280;42354;53.218;6.564;2023-02-28T11:12:16;46999.59;;;-142.92;53.29
56456;BME280;42354;53.218;6.564;2023-02-28T11:14:53;46995.50;;;-142.92;49.82
56456;BME280;42354;53.218;6.564;2023-02-28T11:17:26;46979.06;;;-142.92;49.50
56456;BME280;42354;53.218;6.564;2023-02-28T11:20:05;46987.28;;;-142.92;47.58
56456;BME280;42354;53.218;6.564;2023-02-28T11:22:39;46999.59;;;-142.92;46.44
56456;BME280;42354;53.218;6.564;2023-02-28T11:25:19;46999.59;;;-142.92;46.42
56456;BME280;42354;53.218;6.564;2023-02-28T11:27:48;46997.53;;;-142.92;46.77
56456;BME280;42354;53.218;6.564;2023-02-28T11:32:57;46991.38;;;-142.92;44.38
56456;BME280;42354;53.218;6.564;2023-02-28T11:37:55;46985.22;;;-142.92;43.99
56456;BME280;42354;53.218;6.564;2023-02-28T11:40:30;47001.66;;;-142.92;42.54
56456;BME280;42354;53.218;6.564;2023-02-28T11:43:20;46991.38;;;-142.92;42.05
56456;BME280;42354;53.218;6.564;2023-02-28T11:46:20;47007.81;;;-142.92;42.83
56456;BME280;42354;53.218;6.564;2023-02-28T11:49:01;46991.38;;;-142.92;41.94
56456;BME280;42354;53.218;6.564;2023-02-28T11:51:34;46970.88;;;-142.92;42.71
56456;BME280;42354;53.218;6.564;2023-02-28T11:56:33;47003.69;;;-142.92;41.93
56456;BME280;42354;53.218;6.564;2023-02-28T12:02:36;46995.50;;;-142.92;43.47
56456;BME280;42354;53.218;6.564;2023-02-28T12:11:23;46989.34;;;-142.92;42.60
56456;BME280;42354;53.218;6.564;2023-02-28T12:22:18;46997.53;;;-142.92;40.34
56456;BME280;42354;53.218;6.564;2023-02-28T12:27:36;47005.75;;;-142.92;41.81
56456;BME280;42354;53.218;6.564;2023-02-28T12:30:24;46997.53;;;-142.92;41.72
56456;BME280;42354;53.218;6.564;2023-02-28T12:33:04;46991.38;;;-142.92;41.53
56456;BME280;42354;53.218;6.564;2023-02-28T12:38:44;47016.00;;;-142.92;41.87
56456;BME280;42354;53.218;6.564;2023-02-28T12:41:12;46989.34;;;-142.92;42.51
56456;BME280;42354;53.218;6.564;2023-02-28T12:43:52;46999.59;;;-142.92;41.66
56456;BME280;42354;53.218;6.564;2023-02-28T12:46:27;46983.19;;;-142.92;41.46
56456;BME280;42354;53.218;6.564;2023-02-28T12:48:59;46991.38;;;-142.92;41.45
56456;BME280;42354;53.218;6.564;2023-02-28T12:51:28;47005.75;;;-142.92;41.44
56456;BME280;42354;53.218;6.564;2023-02-28T12:54:02;47013.97;;;-142.92;41.27
56456;BME280;42354;53.218;6.564;2023-02-28T12:56:33;47005.75;;;-142.92;41.32
56456;BME280;42354;53.218;6.564;2023-02-28T12:59:18;46993.44;;;-142.92;40.78
56456;BME280;42354;53.218;6.564;2023-02-28T13:09:31;46991.38;;;-142.92;41.87
56456;BME280;42354;53.218;6.564;2023-02-28T13:11:57;46989.34;;;-142.92;42.47
56456;BME280;42354;53.218;6.564;2023-02-28T13:17:00;46987.28;;;-142.92;41.27
56456;BME280;42354;53.218;6.564;2023-02-28T13:19:29;47009.84;;;-142.92;41.45
56456;BME280;42354;53.218;6.564;2023-02-28T13:21:57;46989.34;;;-142.92;42.43
56456;BME280;42354;53.218;6.564;2023-02-28T13:24:46;46985.22;;;-142.92;42.23
56456;BME280;42354;53.218;6.564;2023-02-28T13:29:42;46995.50;;;-142.92;42.06
56456;BME280;42354;53.218;6.564;2023-02-28T13:37:35;47001.66;;;-142.92;42.84
56456;BME280;42354;53.218;6.564;2023-02-28T13:42:35;46977.03;;;-142.92;42.94
56456;BME280;42354;53.218;6.564;2023-02-28T13:47:40;46987.28;;;-142.92;41.55
56456;BME280;42354;53.218;6.564;2023-02-28T13:50:21;46977.03;;;-142.92;42.07
56456;BME280;42354;53.218;6.564;2023-02-28T14:06:58;46997.53;;;-142.92;45.29
56456;BME280;42354;53.218;6.564;2023-02-28T14:09:38;46983.19;;;-142.92;45.64
56456;BME280;42354;53.218;6.564;2023-02-28T14:18:00;46970.88;;;-142.92;46.31
56456;BME280;42354;53.218;6.564;2023-02-28T14:20:30;46977.03;;;-142.92;46.04
56456;BME280;42354;53.218;6.564;2023-02-28T14:26:19;46979.06;;;-142.92;44.91
56456;BME280;42354;53.218;6.564;2023-02-28T14:34:36;46983.19;;;-142.92;44.29
56456;BME280;42354;53.218;6.564;2023-02-28T14:37:03;46977.03;;;-142.92;44.49
56456;BME280;42354;53.218;6.564;2023-02-28T14:39:30;46956.50;;;-142.92;44.97
56456;BME280;42354;53.218;6.564;2023-02-28T14:41:57;46977.03;;;-142.92;45.19
56456;BME280;42354;53.218;6.564;2023-02-28T14:44:29;46987.28;;;-142.92;45.79
56456;BME280;42354;53.218;6.564;2023-02-28T14:47:04;46979.06;;;-142.92;46.35
56456;BME280;42354;53.218;6.564;2023-02-28T14:49:44;46997.53;;;-142.92;47.09
56456;BME280;42354;53.218;6.564;2023-02-28T14:52:21;46985.22;;;-142.92;47.13
56456;BME280;42354;53.218;6.564;2023-02-28T14:54:53;46970.88;;;-142.92;47.08
56456;BME280;42354;53.218;6.564;2023-02-28T14:57:34;46995.50;;;-142.92;46.96
56456;BME280;42354;53.218;6.564;2023-02-28T15:02:39;46989.34;;;-142.92;46.95
56456;BME280;42354;53.218;6.564;2023-02-28T15:07:37;46979.06;;;-142.92;47.17
56456;BME280;42354;53.218;6.564;2023-02-28T15:10:09;46970.88;;;-142.92;47.44
56456;BME280;42354;53.218;6.564;2023-02-28T15:12:35;46989.34;;;-142.92;47.69
56456;BME280;42354;53.218;6.564;2023-02-28T15:15:02;47007.81;;;-142.92;47.85
56456;BME280;42354;53.218;6.564;2023-02-28T15:17:28;46987.28;;;-142.92;48.27
56456;BME280;42354;53.218;6.564;2023-02-28T15:19:54;47007.81;;;-142.92;48.10
56456;BME280;42354;53.218;6.564;2023-02-28T15:22:33;46970.88;;;-142.92;48.65